sensor_id;sensor_type;location;lat;lon;timestamp;pressure;altitude;pressure_sealevel;temperature;humidity
21011;BME280;10663;42.714;23.274;2023-05-01T00:00:29;94751.84;;;14.58;57.28
21011;BME280;10663;42.714;23.274;2023-05-01T00:02:00;94759.63;;;14.55;57.61
21011;BME280;10663;42.714;23.274;2023-05-01T00:03:31;94755.75;;;14.47;57.71
21011;BME280;10663;42.714;23.274;2023-05-01T00:05:02;94761.56;;;14.26;58.32
21011;BME280;10663;42.714;23.274;2023-05-01T00:06:33;94755.53;;;14.20;58.76
21011;BME280;10663;42.714;23.274;2023-05-01T00:08:04;94756.75;;;14.28;58.46
21011;BME280;10663;42.714;23.274;2023-05-01T00:09:35;94759.59;;;14.12;59.24
21011;BME280;10663;42.714;23.274;2023-05-01T00:11:06;94759.69;;;14.26;58.88
21011;BME280;10663;42.714;23.274;2023-05-01T00:12:41;94756.81;;;14.22;58.94
21011;BME280;10663;42.714;23.274;2023-05-01T00:14:12;94752.34;;;14.18;59.16
21011;BME280;10663;42.714;23.274;2023-05-01T00:15:43;94752.38;;;14.37;58.83
21011;BME280;10663;42.714;23.274;2023-05-01T00:17:14;94752.34;;;14.18;59.25
21011;BME280;10663;42.714;23.274;2023-05-01T00:18:44;94748.31;;;14.20;59.05
21011;BME280;10663;42.714;23.274;2023-05-01T00:20:15;94755.72;;;14.23;59.30
21011;BME280;10663;42.714;23.274;2023-05-01T00:21:46;94755.75;;;14.00;60.03
21011;BME280;10663;42.714;23.274;2023-05-01T00:23:17;94750.44;;;14.00;60.03
21011;BME280;10663;42.714;23.274;2023-05-01T00:24:48;94750.75;;;14.17;59.64
21011;BME280;10663;42.714;23.274;2023-05-01T00:26:19;94747.81;;;14.18;59.33
21011;BME280;10663;42.714;23.274;2023-05-01T00:27:52;94753.06;;;14.23;59.18
21011;BME280;10663;42.714;23.274;2023-05-01T00:29:23;94744.25;;;14.04;59.81
21011;BME280;10663;42.714;23.274;2023-05-01T00:30:54;94742.38;;;14.05;60.10
21011;BME280;10663;42.714;23.274;2023-05-01T00:32:25;94751.16;;;14.05;59.85
21011;BME280;10663;42.714;23.274;2023-05-01T00:33:56;94750.28;;;13.91;60.52
21011;BME280;10663;42.714;23.274;2023-05-01T00:35:27;94757.44;;;14.14;59.89
21011;BME280;10663;42.714;23.274;2023-05-01T00:36:58;94751.13;;;14.10;59.98
21011;BME280;10663;42.714;23.274;2023-05-01T00:38:29;94756.59;;;14.19;59.78
21011;BME280;10663;42.714;23.274;2023-05-01T00:40:00;94760.53;;;14.21;59.64
21011;BME280;10663;42.714;23.274;2023-05-01T00:41:31;94757.69;;;14.18;59.51
21011;BME280;10663;42.714;23.274;2023-05-01T00:43:02;94756.28;;;14.20;59.82
21011;BME280;10663;42.714;23.274;2023-05-01T00:44:33;94760.84;;;14.20;60.13
21011;BME280;10663;42.714;23.274;2023-05-01T00:46:04;94766.94;;;14.20;59.57
21011;BME280;10663;42.714;23.274;2023-05-01T00:47:35;94765.66;;;14.18;60.20
21011;BME280;10663;42.714;23.274;2023-05-01T00:49:07;94769.06;;;14.23;59.93
21011;BME280;10663;42.714;23.274;2023-05-01T00:50:37;94771.72;;;14.23;61.13
21011;BME280;10663;42.714;23.274;2023-05-01T00:52:08;94771.72;;;14.23;62.77
21011;BME280;10663;42.714;23.274;2023-05-01T00:53:39;94770.13;;;14.22;60.48
21011;BME280;10663;42.714;23.274;2023-05-01T00:55:11;94770.19;;;14.17;59.79
21011;BME280;10663;42.714;23.274;2023-05-01T00:56:42;94774.13;;;14.01;60.32
21011;BME280;10663;42.714;23.274;2023-05-01T00:58:13;94775.66;;;13.83;61.51
21011;BME280;10663;42.714;23.274;2023-05-01T00:59:46;94778.75;;;13.91;60.45
21011;BME280;10663;42.714;23.274;2023-05-01T01:01:18;94779.09;;;13.84;61.04
21011;BME280;10663;42.714;23.274;2023-05-01T01:02:49;94781.97;;;13.88;62.30
21011;BME280;10663;42.714;23.274;2023-05-01T01:04:20;94782.19;;;13.67;61.65
21011;BME280;10663;42.714;23.274;2023-05-01T01:05:59;94778.59;;;13.82;60.73
21011;BME280;10663;42.714;23.274;2023-05-01T01:07:41;94785.50;;;13.83;60.79
21011;BME280;10663;42.714;23.274;2023-05-01T01:09:37;94784.19;;;13.80;60.94
21011;BME280;10663;42.714;23.274;2023-05-01T01:12:14;94777.00;;;13.81;60.66
21011;BME280;10663;42.714;23.274;2023-05-01T01:14:52;94779.50;;;13.72;60.78
21011;BME280;10663;42.714;23.274;2023-05-01T01:16:27;94780.75;;;13.51;61.50
21011;BME280;10663;42.714;23.274;2023-05-01T01:18:08;94783.16;;;13.47;61.77
21011;BME280;10663;42.714;23.274;2023-05-01T01:21:31;94779.25;;;13.69;61.21
21011;BME280;10663;42.714;23.274;2023-05-01T01:32:55;94802.81;;;13.80;60.67
21011;BME280;10663;42.714;23.274;2023-05-01T01:34:34;94804.53;;;13.95;61.90
21011;BME280;10663;42.714;23.274;2023-05-01T01:36:09;94800.34;;;13.89;61.91
21011;BME280;10663;42.714;23.274;2023-05-01T01:37:47;94799.03;;;13.86;60.71
21011;BME280;10663;42.714;23.274;2023-05-01T01:41:00;94794.22;;;13.65;61.20
21011;BME280;10663;42.714;23.274;2023-05-01T01:42:38;94791.16;;;13.76;62.69
21011;BME280;10663;42.714;23.274;2023-05-01T01:44:55;94792.06;;;13.91;62.11
21011;BME280;10663;42.714;23.274;2023-05-01T01:46:01;94787.66;;;13.81;61.75
21011;BME280;10663;42.714;23.274;2023-05-01T01:47:35;94792.53;;;13.74;61.03
21011;BME280;10663;42.714;23.274;2023-05-01T01:49:12;94787.75;;;13.71;61.08
21011;BME280;10663;42.714;23.274;2023-05-01T01:50:45;94797.41;;;13.62;61.71
21011;BME280;10663;42.714;23.274;2023-05-01T01:52:16;94791.44;;;13.46;62.24
21011;BME280;10663;42.714;23.274;2023-05-01T01:53:48;94794.22;;;13.31;62.76
21011;BME280;10663;42.714;23.274;2023-05-01T01:55:21;94789.25;;;13.53;62.91
21011;BME280;10663;42.714;23.274;2023-05-01T01:56:54;94792.09;;;13.62;62.14
21011;BME280;10663;42.714;23.274;2023-05-01T01:58:26;94793.06;;;13.71;61.97
21011;BME280;10663;42.714;23.274;2023-05-01T01:59:57;94788.53;;;13.71;61.75
21011;BME280;10663;42.714;23.274;2023-05-01T02:01:28;94782.66;;;13.74;61.78
21011;BME280;10663;42.714;23.274;2023-05-01T02:02:59;94785.31;;;13.74;61.97
21011;BME280;10663;42.714;23.274;2023-05-01T02:04:30;94790.56;;;13.56;61.85
21011;BME280;10663;42.714;23.274;2023-05-01T02:06:02;94782.59;;;13.56;61.66
21011;BME280;10663;42.714;23.274;2023-05-01T02:07:35;94787.28;;;13.35;62.19
21011;BME280;10663;42.714;23.274;2023-05-01T02:09:07;94784.06;;;13.38;61.57
21011;BME280;10663;42.714;23.274;2023-05-01T02:10:39;94782.09;;;13.20;62.18
21011;BME280;10663;42.714;23.274;2023-05-01T02:12:11;94791.22;;;13.03;63.05
21011;BME280;10663;42.714;23.274;2023-05-01T02:13:42;94788.94;;;12.92;63.65
21011;BME280;10663;42.714;23.274;2023-05-01T02:15:14;94785.91;;;13.03;63.32
21011;BME280;10663;42.714;23.274;2023-05-01T02:16:46;94781.16;;;13.00;63.15
21011;BME280;10663;42.714;23.274;2023-05-01T02:18:18;94779.50;;;13.04;62.77
21011;BME280;10663;42.714;23.274;2023-05-01T02:19:50;94781.38;;;13.04;63.08
21011;BME280;10663;42.714;23.274;2023-05-01T02:21:22;94784.25;;;13.12;62.69
21011;BME280;10663;42.714;23.274;2023-05-01T02:22:54;94780.66;;;12.93;62.89
21011;BME280;10663;42.714;23.274;2023-05-01T02:24:26;94783.28;;;12.98;63.09
21011;BME280;10663;42.714;23.274;2023-05-01T02:25:58;94787.03;;;12.97;63.29
21011;BME280;10663;42.714;23.274;2023-05-01T02:27:31;94780.03;;;13.06;62.97
21011;BME280;10663;42.714;23.274;2023-05-01T02:29:02;94782.94;;;13.10;62.76
21011;BME280;10663;42.714;23.274;2023-05-01T02:30:34;94787.19;;;13.16;62.80
21011;BME280;10663;42.714;23.274;2023-05-01T02:32:05;94779.50;;;13.09;62.70
21011;BME280;10663;42.714;23.274;2023-05-01T02:33:36;94784.81;;;13.09;63.16
21011;BME280;10663;42.714;23.274;2023-05-01T02:35:07;94788.63;;;12.98;62.25
21011;BME280;10663;42.714;23.274;2023-05-01T02:36:38;94791.88;;;12.85;62.10
21011;BME280;10663;42.714;23.274;2023-05-01T02:38:09;94792.94;;;12.89;62.22
21011;BME280;10663;42.714;23.274;2023-05-01T02:39:40;94789.44;;;12.94;62.27
21011;BME280;10663;42.714;23.274;2023-05-01T02:41:11;94787.97;;;13.11;63.71
21011;BME280;10663;42.714;23.274;2023-05-01T02:42:44;94787.91;;;13.27;62.34
21011;BME280;10663;42.714;23.274;2023-05-01T02:44:15;94790.28;;;12.89;63.43
21011;BME280;10663;42.714;23.274;2023-05-01T02:45:45;94790.19;;;12.99;63.40
21011;BME280;10663;42.714;23.274;2023-05-01T02:47:19;94794.47;;;12.51;64.95
21011;BME280;10663;42.714;23.274;2023-05-01T02:48:50;94791.81;;;12.51;65.44
21011;BME280;10663;42.714;23.274;2023-05-01T02:50:22;94794.66;;;12.70;64.70
21011;BME280;10663;42.714;23.274;2023-05-01T02:51:54;94787.13;;;12.82;64.26
21011;BME280;10663;42.714;23.274;2023-05-01T02:53:25;94792.84;;;12.99;64.13
21011;BME280;10663;42.714;23.274;2023-05-01T02:55:01;94785.88;;;13.08;63.03
21011;BME280;10663;42.714;23.274;2023-05-01T02:56:33;94797.84;;;12.67;63.88
21011;BME280;10663;42.714;23.274;2023-05-01T02:58:04;94800.91;;;12.45;64.57
21011;BME280;10663;42.714;23.274;2023-05-01T02:59:35;94798.81;;;12.37;64.80
21011;BME280;10663;42.714;23.274;2023-05-01T03:01:06;94794.16;;;12.58;64.68
21011;BME280;10663;42.714;23.274;2023-05-01T03:02:37;94797.59;;;12.63;64.04
21011;BME280;10663;42.714;23.274;2023-05-01T03:04:08;94798.94;;;12.61;64.35
21011;BME280;10663;42.714;23.274;2023-05-01T03:05:39;94794.13;;;12.68;64.00
21011;BME280;10663;42.714;23.274;2023-05-01T03:07:12;94799.69;;;12.66;64.07
21011;BME280;10663;42.714;23.274;2023-05-01T03:08:43;94788.00;;;12.72;63.88
21011;BME280;10663;42.714;23.274;2023-05-01T03:10:14;94800.47;;;12.72;64.11
21011;BME280;10663;42.714;23.274;2023-05-01T03:11:45;94791.44;;;12.73;63.54
21011;BME280;10663;42.714;23.274;2023-05-01T03:13:16;94799.69;;;12.71;63.93
21011;BME280;10663;42.714;23.274;2023-05-01T03:14:47;94805.75;;;12.77;63.70
21011;BME280;10663;42.714;23.274;2023-05-01T03:16:17;94802.81;;;12.29;64.81
21011;BME280;10663;42.714;23.274;2023-05-01T03:17:48;94809.44;;;12.32;63.96
21011;BME280;10663;42.714;23.274;2023-05-01T03:19:19;94805.41;;;12.40;64.02
21011;BME280;10663;42.714;23.274;2023-05-01T03:20:50;94798.34;;;12.20;64.77
21011;BME280;10663;42.714;23.274;2023-05-01T03:22:22;94799.91;;;12.26;65.86
21011;BME280;10663;42.714;23.274;2023-05-01T03:23:54;94803.78;;;12.49;65.11
21011;BME280;10663;42.714;23.274;2023-05-01T03:25:24;94806.72;;;11.83;66.11
21011;BME280;10663;42.714;23.274;2023-05-01T03:26:55;94804.47;;;12.15;65.30
21011;BME280;10663;42.714;23.274;2023-05-01T03:28:26;94808.97;;;12.20;65.31
21011;BME280;10663;42.714;23.274;2023-05-01T03:29:57;94805.75;;;12.28;65.56
21011;BME280;10663;42.714;23.274;2023-05-01T03:31:28;94806.34;;;12.05;66.77
21011;BME280;10663;42.714;23.274;2023-05-01T03:33:01;94809.88;;;11.90;67.37
21011;BME280;10663;42.714;23.274;2023-05-01T03:34:35;94808.84;;;11.55;69.08
21011;BME280;10663;42.714;23.274;2023-05-01T03:36:06;94819.19;;;11.62;68.93
21011;BME280;10663;42.714;23.274;2023-05-01T03:37:38;94813.03;;;11.87;68.58
21011;BME280;10663;42.714;23.274;2023-05-01T03:39:09;94826.56;;;11.85;67.77
21011;BME280;10663;42.714;23.274;2023-05-01T03:41:18;94829.78;;;11.62;68.60
21011;BME280;10663;42.714;23.274;2023-05-01T03:43:09;94828.72;;;11.63;68.79
21011;BME280;10663;42.714;23.274;2023-05-01T03:44:40;94828.44;;;11.70;68.83
21011;BME280;10663;42.714;23.274;2023-05-01T03:46:11;94827.91;;;11.68;68.37
21011;BME280;10663;42.714;23.274;2023-05-01T03:47:42;94821.50;;;11.94;67.88
21011;BME280;10663;42.714;23.274;2023-05-01T03:49:12;94826.75;;;12.14;66.43
21011;BME280;10663;42.714;23.274;2023-05-01T03:50:50;94828.09;;;12.12;66.86
21011;BME280;10663;42.714;23.274;2023-05-01T03:52:21;94826.47;;;12.26;66.06
21011;BME280;10663;42.714;23.274;2023-05-01T03:53:52;94835.44;;;12.40;65.49
21011;BME280;10663;42.714;23.274;2023-05-01T03:55:26;94835.72;;;12.33;64.83
21011;BME280;10663;42.714;23.274;2023-05-01T03:56:57;94833.59;;;12.35;65.00
21011;BME280;10663;42.714;23.274;2023-05-01T03:58:28;94840.78;;;12.30;65.27
21011;BME280;10663;42.714;23.274;2023-05-01T03:59:58;94842.03;;;12.53;64.62
21011;BME280;10663;42.714;23.274;2023-05-01T04:01:30;94834.81;;;12.58;64.17
21011;BME280;10663;42.714;23.274;2023-05-01T04:03:04;94846.28;;;12.54;63.44
21011;BME280;10663;42.714;23.274;2023-05-01T04:04:38;94852.69;;;12.43;64.02
21011;BME280;10663;42.714;23.274;2023-05-01T04:06:10;94846.03;;;12.45;63.55
21011;BME280;10663;42.714;23.274;2023-05-01T04:07:40;94843.25;;;12.70;64.31
21011;BME280;10663;42.714;23.274;2023-05-01T04:09:11;94848.00;;;12.79;63.41
21011;BME280;10663;42.714;23.274;2023-05-01T04:10:42;94846.22;;;12.64;63.27
21011;BME280;10663;42.714;23.274;2023-05-01T04:12:13;94844.06;;;12.71;63.05
21011;BME280;10663;42.714;23.274;2023-05-01T04:13:43;94844.38;;;12.64;63.76
21011;BME280;10663;42.714;23.274;2023-05-01T04:15:15;94846.50;;;12.57;63.89
21011;BME280;10663;42.714;23.274;2023-05-01T04:16:46;94834.94;;;12.38;64.65
21011;BME280;10663;42.714;23.274;2023-05-01T04:18:17;94844.84;;;12.07;66.44
21011;BME280;10663;42.714;23.274;2023-05-01T04:19:48;94844.56;;;12.19;67.07
21011;BME280;10663;42.714;23.274;2023-05-01T04:21:19;94847.44;;;12.27;66.55
21011;BME280;10663;42.714;23.274;2023-05-01T04:22:54;94844.19;;;12.46;66.12
21011;BME280;10663;42.714;23.274;2023-05-01T04:24:25;94843.78;;;12.72;65.40
21011;BME280;10663;42.714;23.274;2023-05-01T04:25:57;94844.81;;;12.82;65.26
21011;BME280;10663;42.714;23.274;2023-05-01T04:27:28;94844.53;;;12.83;65.57
21011;BME280;10663;42.714;23.274;2023-05-01T04:28:59;94854.78;;;13.00;65.04
21011;BME280;10663;42.714;23.274;2023-05-01T04:30:33;94854.47;;;13.06;64.58
21011;BME280;10663;42.714;23.274;2023-05-01T04:32:04;94849.34;;;13.20;64.16
21011;BME280;10663;42.714;23.274;2023-05-01T04:33:35;94847.81;;;13.48;63.51
21011;BME280;10663;42.714;23.274;2023-05-01T04:35:06;94850.38;;;13.63;63.60
21011;BME280;10663;42.714;23.274;2023-05-01T04:36:36;94843.94;;;13.93;62.20
21011;BME280;10663;42.714;23.274;2023-05-01T04:38:07;94848.19;;;13.94;62.14
21011;BME280;10663;42.714;23.274;2023-05-01T04:39:41;94843.00;;;14.08;61.47
21011;BME280;10663;42.714;23.274;2023-05-01T04:41:12;94849.19;;;14.27;60.78
21011;BME280;10663;42.714;23.274;2023-05-01T04:42:42;94852.88;;;14.31;61.56
21011;BME280;10663;42.714;23.274;2023-05-01T04:44:16;94855.75;;;14.35;60.45
21011;BME280;10663;42.714;23.274;2023-05-01T04:45:48;94848.84;;;14.34;60.35
21011;BME280;10663;42.714;23.274;2023-05-01T04:47:19;94852.06;;;14.31;60.53
21011;BME280;10663;42.714;23.274;2023-05-01T04:48:50;94850.91;;;14.42;60.38
21011;BME280;10663;42.714;23.274;2023-05-01T04:50:21;94849.03;;;14.42;60.60
21011;BME280;10663;42.714;23.274;2023-05-01T04:51:52;94855.16;;;14.43;60.43
21011;BME280;10663;42.714;23.274;2023-05-01T04:53:24;94853.91;;;14.59;60.02
21011;BME280;10663;42.714;23.274;2023-05-01T04:54:55;94849.91;;;14.80;60.15
21011;BME280;10663;42.714;23.274;2023-05-01T04:56:29;94848.69;;;14.73;59.84
21011;BME280;10663;42.714;23.274;2023-05-01T04:58:04;94851.69;;;14.85;59.25
21011;BME280;10663;42.714;23.274;2023-05-01T04:59:36;94859.22;;;15.02;59.20
21011;BME280;10663;42.714;23.274;2023-05-01T05:01:08;94862.97;;;15.01;58.68
21011;BME280;10663;42.714;23.274;2023-05-01T05:02:39;94858.72;;;15.18;58.29
21011;BME280;10663;42.714;23.274;2023-05-01T05:04:10;94863.31;;;15.13;58.12
21011;BME280;10663;42.714;23.274;2023-05-01T05:05:41;94861.81;;;15.25;57.81
21011;BME280;10663;42.714;23.274;2023-05-01T05:07:12;94869.72;;;15.12;57.49
21011;BME280;10663;42.714;23.274;2023-05-01T05:09:18;94873.34;;;15.02;58.53
21011;BME280;10663;42.714;23.274;2023-05-01T05:10:55;94869.31;;;15.23;57.87
21011;BME280;10663;42.714;23.274;2023-05-01T05:12:30;94878.03;;;15.29;57.77
21011;BME280;10663;42.714;23.274;2023-05-01T05:14:01;94873.41;;;14.97;58.11
21011;BME280;10663;42.714;23.274;2023-05-01T05:15:32;94872.31;;;14.79;58.74
21011;BME280;10663;42.714;23.274;2023-05-01T05:17:03;94880.78;;;14.63;59.56
21011;BME280;10663;42.714;23.274;2023-05-01T05:18:35;94881.19;;;14.93;58.97
21011;BME280;10663;42.714;23.274;2023-05-01T05:20:06;94884.22;;;15.06;58.18
21011;BME280;10663;42.714;23.274;2023-05-01T05:21:38;94884.13;;;14.73;59.47
21011;BME280;10663;42.714;23.274;2023-05-01T05:23:08;94882.47;;;14.77;60.07
21011;BME280;10663;42.714;23.274;2023-05-01T05:24:39;94883.56;;;15.14;59.30
21011;BME280;10663;42.714;23.274;2023-05-01T05:26:11;94885.38;;;15.37;58.62
21011;BME280;10663;42.714;23.274;2023-05-01T05:27:42;94889.69;;;15.33;58.35
21011;BME280;10663;42.714;23.274;2023-05-01T05:29:12;94892.78;;;14.84;58.88
21011;BME280;10663;42.714;23.274;2023-05-01T05:30:43;94890.19;;;14.79;59.82
21011;BME280;10663;42.714;23.274;2023-05-01T05:32:18;94884.94;;;15.30;61.86
21011;BME280;10663;42.714;23.274;2023-05-01T05:33:49;94896.91;;;15.51;58.17
21011;BME280;10663;42.714;23.274;2023-05-01T05:35:20;94893.09;;;15.57;60.32
21011;BME280;10663;42.714;23.274;2023-05-01T05:36:51;94890.50;;;15.71;58.96
21011;BME280;10663;42.714;23.274;2023-05-01T05:38:27;94897.28;;;15.07;58.67
21011;BME280;10663;42.714;23.274;2023-05-01T05:40:00;94896.78;;;15.24;58.61
21011;BME280;10663;42.714;23.274;2023-05-01T05:41:34;94899.72;;;15.22;59.55
21011;BME280;10663;42.714;23.274;2023-05-01T05:43:06;94901.16;;;15.52;58.09
21011;BME280;10663;42.714;23.274;2023-05-01T05:44:38;94899.31;;;15.85;57.06
21011;BME280;10663;42.714;23.274;2023-05-01T05:46:09;94899.00;;;15.73;58.16
21011;BME280;10663;42.714;23.274;2023-05-01T05:47:41;94901.16;;;15.71;58.28
21011;BME280;10663;42.714;23.274;2023-05-01T05:49:12;94890.91;;;16.24;56.59
21011;BME280;10663;42.714;23.274;2023-05-01T05:50:44;94898.97;;;16.38;56.22
21011;BME280;10663;42.714;23.274;2023-05-01T05:52:15;94892.44;;;16.71;54.17
21011;BME280;10663;42.714;23.274;2023-05-01T05:53:47;94894.03;;;16.72;55.29
21011;BME280;10663;42.714;23.274;2023-05-01T05:55:17;94896.19;;;16.57;54.61
21011;BME280;10663;42.714;23.274;2023-05-01T05:57:02;94901.16;;;16.77;53.92
21011;BME280;10663;42.714;23.274;2023-05-01T05:58:34;94891.31;;;16.31;56.11
21011;BME280;10663;42.714;23.274;2023-05-01T06:00:06;94902.31;;;15.84;57.37
21011;BME280;10663;42.714;23.274;2023-05-01T06:01:42;94906.75;;;16.34;55.27
21011;BME280;10663;42.714;23.274;2023-05-01T06:03:13;94904.09;;;16.48;55.02
21011;BME280;10663;42.714;23.274;2023-05-01T06:04:45;94906.56;;;16.58;54.76
21011;BME280;10663;42.714;23.274;2023-05-01T06:06:17;94907.59;;;16.76;55.37
21011;BME280;10663;42.714;23.274;2023-05-01T06:07:48;94906.31;;;16.14;55.39
21011;BME280;10663;42.714;23.274;2023-05-01T06:09:18;94911.41;;;16.42;56.39
21011;BME280;10663;42.714;23.274;2023-05-01T06:10:49;94907.66;;;16.43;56.09
21011;BME280;10663;42.714;23.274;2023-05-01T06:12:20;94916.38;;;16.03;57.16
21011;BME280;10663;42.714;23.274;2023-05-01T06:13:50;94916.00;;;16.56;55.20
21011;BME280;10663;42.714;23.274;2023-05-01T06:15:22;94916.38;;;16.35;55.53
21011;BME280;10663;42.714;23.274;2023-05-01T06:16:58;94910.41;;;16.11;56.67
21011;BME280;10663;42.714;23.274;2023-05-01T06:18:28;94916.25;;;16.27;57.70
21011;BME280;10663;42.714;23.274;2023-05-01T06:20:00;94920.34;;;16.52;55.87
21011;BME280;10663;42.714;23.274;2023-05-01T06:21:32;94917.84;;;16.41;55.51
21011;BME280;10663;42.714;23.274;2023-05-01T06:23:03;94921.31;;;16.42;56.09
21011;BME280;10663;42.714;23.274;2023-05-01T06:24:44;94910.34;;;16.84;54.90
21011;BME280;10663;42.714;23.274;2023-05-01T06:26:16;94906.91;;;16.84;55.73
21011;BME280;10663;42.714;23.274;2023-05-01T06:27:47;94905.50;;;17.00;54.90
21011;BME280;10663;42.714;23.274;2023-05-01T06:29:18;94900.75;;;17.11;54.42
21011;BME280;10663;42.714;23.274;2023-05-01T06:30:48;94904.69;;;17.49;53.18
21011;BME280;10663;42.714;23.274;2023-05-01T06:32:21;94905.50;;;16.87;54.46
21011;BME280;10663;42.714;23.274;2023-05-01T06:33:53;94898.66;;;16.94;54.76
21011;BME280;10663;42.714;23.274;2023-05-01T06:35:31;94913.34;;;16.97;54.66
21011;BME280;10663;42.714;23.274;2023-05-01T06:37:02;94908.94;;;17.14;54.17
21011;BME280;10663;42.714;23.274;2023-05-01T06:38:34;94904.91;;;16.76;55.45
21011;BME280;10663;42.714;23.274;2023-05-01T06:40:06;94905.38;;;17.05;55.21
21011;BME280;10663;42.714;23.274;2023-05-01T06:41:37;94911.75;;;16.96;55.43
21011;BME280;10663;42.714;23.274;2023-05-01T06:43:08;94912.25;;;16.98;55.67
21011;BME280;10663;42.714;23.274;2023-05-01T06:44:39;94907.34;;;17.27;54.55
21011;BME280;10663;42.714;23.274;2023-05-01T06:46:10;94914.03;;;16.89;55.90
21011;BME280;10663;42.714;23.274;2023-05-01T06:47:41;94904.81;;;17.44;54.32
21011;BME280;10663;42.714;23.274;2023-05-01T06:49:12;94905.25;;;17.38;54.14
21011;BME280;10663;42.714;23.274;2023-05-01T06:50:43;94909.91;;;17.68;53.20
21011;BME280;10663;42.714;23.274;2023-05-01T06:52:14;94908.09;;;17.77;53.06
21011;BME280;10663;42.714;23.274;2023-05-01T06:53:44;94908.16;;;18.08;52.25
21011;BME280;10663;42.714;23.274;2023-05-01T06:55:15;94912.50;;;17.24;54.13
21011;BME280;10663;42.714;23.274;2023-05-01T06:56:46;94914.09;;;17.61;53.43
21011;BME280;10663;42.714;23.274;2023-05-01T06:58:17;94909.94;;;17.54;53.48
21011;BME280;10663;42.714;23.274;2023-05-01T06:59:47;94918.34;;;17.75;53.19
21011;BME280;10663;42.714;23.274;2023-05-01T07:01:19;94904.97;;;18.06;52.17
21011;BME280;10663;42.714;23.274;2023-05-01T07:02:49;94917.72;;;17.78;53.18
21011;BME280;10663;42.714;23.274;2023-05-01T07:04:20;94911.06;;;18.20;52.17
21011;BME280;10663;42.714;23.274;2023-05-01T07:05:51;94912.75;;;18.16;52.27
21011;BME280;10663;42.714;23.274;2023-05-01T07:07:21;94907.53;;;18.42;51.76
21011;BME280;10663;42.714;23.274;2023-05-01T07:08:52;94915.31;;;18.52;51.90
21011;BME280;10663;42.714;23.274;2023-05-01T07:10:23;94906.44;;;18.43;51.71
21011;BME280;10663;42.714;23.274;2023-05-01T07:11:54;94908.47;;;18.68;50.91
21011;BME280;10663;42.714;23.274;2023-05-01T07:13:26;94910.56;;;18.49;51.32
21011;BME280;10663;42.714;23.274;2023-05-01T07:14:57;94908.97;;;18.79;50.93
21011;BME280;10663;42.714;23.274;2023-05-01T07:16:28;94914.34;;;18.48;51.03
21011;BME280;10663;42.714;23.274;2023-05-01T07:18:01;94905.63;;;18.65;51.73
21011;BME280;10663;42.714;23.274;2023-05-01T07:19:35;94910.50;;;19.20;50.74
21011;BME280;10663;42.714;23.274;2023-05-01T07:21:05;94912.97;;;19.56;48.83
21011;BME280;10663;42.714;23.274;2023-05-01T07:22:39;94917.97;;;18.75;49.71
21011;BME280;10663;42.714;23.274;2023-05-01T07:24:10;94925.41;;;18.24;51.86
21011;BME280;10663;42.714;23.274;2023-05-01T07:25:43;94921.34;;;18.58;50.98
21011;BME280;10663;42.714;23.274;2023-05-01T07:27:15;94929.22;;;17.79;52.75
21011;BME280;10663;42.714;23.274;2023-05-01T07:28:46;94927.69;;;17.86;52.04
21011;BME280;10663;42.714;23.274;2023-05-01T07:30:16;94924.69;;;18.32;51.37
21011;BME280;10663;42.714;23.274;2023-05-01T07:31:47;94919.28;;;18.55;50.65
21011;BME280;10663;42.714;23.274;2023-05-01T07:33:18;94920.00;;;18.78;50.03
21011;BME280;10663;42.714;23.274;2023-05-01T07:34:48;94925.16;;;19.14;49.53
21011;BME280;10663;42.714;23.274;2023-05-01T07:36:19;94922.44;;;19.53;49.00
21011;BME280;10663;42.714;23.274;2023-05-01T07:37:51;94918.63;;;19.54;48.65
21011;BME280;10663;42.714;23.274;2023-05-01T07:39:22;94914.47;;;19.31;49.65
21011;BME280;10663;42.714;23.274;2023-05-01T07:40:53;94915.53;;;19.21;49.61
21011;BME280;10663;42.714;23.274;2023-05-01T07:42:25;94923.66;;;19.38;49.73
21011;BME280;10663;42.714;23.274;2023-05-01T07:43:59;94915.44;;;18.78;50.41
21011;BME280;10663;42.714;23.274;2023-05-01T07:45:30;94917.22;;;19.57;48.89
21011;BME280;10663;42.714;23.274;2023-05-01T07:47:02;94915.25;;;19.31;48.75
21011;BME280;10663;42.714;23.274;2023-05-01T07:48:33;94917.22;;;19.57;49.24
21011;BME280;10663;42.714;23.274;2023-05-01T07:50:09;94914.84;;;19.64;48.98
21011;BME280;10663;42.714;23.274;2023-05-01T07:51:40;94905.69;;;19.82;48.39
21011;BME280;10663;42.714;23.274;2023-05-01T07:53:12;94917.00;;;19.27;48.45
21011;BME280;10663;42.714;23.274;2023-05-01T07:54:42;94914.75;;;19.12;47.97
21011;BME280;10663;42.714;23.274;2023-05-01T07:56:19;94909.72;;;19.19;47.58
21011;BME280;10663;42.714;23.274;2023-05-01T07:57:50;94912.34;;;18.93;48.34
21011;BME280;10663;42.714;23.274;2023-05-01T07:59:21;94913.00;;;18.59;48.65
21011;BME280;10663;42.714;23.274;2023-05-01T08:00:52;94905.63;;;19.30;47.46
21011;BME280;10663;42.714;23.274;2023-05-01T08:02:22;94917.84;;;19.62;46.34
21011;BME280;10663;42.714;23.274;2023-05-01T08:03:53;94905.78;;;19.25;47.29
21011;BME280;10663;42.714;23.274;2023-05-01T08:05:24;94916.88;;;19.50;46.88
21011;BME280;10663;42.714;23.274;2023-05-01T08:06:54;94906.16;;;19.75;46.28
21011;BME280;10663;42.714;23.274;2023-05-01T08:08:25;94911.50;;;20.01;45.68
21011;BME280;10663;42.714;23.274;2023-05-01T08:09:56;94909.38;;;20.41;45.48
21011;BME280;10663;42.714;23.274;2023-05-01T08:11:27;94907.97;;;20.35;44.41
21011;BME280;10663;42.714;23.274;2023-05-01T08:12:59;94907.06;;;20.05;45.03
21011;BME280;10663;42.714;23.274;2023-05-01T08:14:30;94910.00;;;20.56;44.10
21011;BME280;10663;42.714;23.274;2023-05-01T08:16:01;94915.09;;;20.78;43.60
21011;BME280;10663;42.714;23.274;2023-05-01T08:17:33;94914.03;;;20.06;44.80